sensor_id;sensor_type;location;lat;lon;timestamp;pressure;altitude;pressure_sealevel;temperature;humidity
5703;BME280;2876;51.738;10.050;2023-07-28T17:33:24;98462.84;;;28.13;56.57
5703;BME280;2876;51.738;10.050;2023-07-28T17:39:26;98455.50;;;29.65;52.62
5703;BME280;2876;51.738;10.050;2023-07-28T17:45:28;98467.91;;;30.36;51.55
5703;BME280;2876;51.738;10.050;2023-07-28T17:51:30;98467.66;;;31.45;48.35
5703;BME280;2876;51.738;10.050;2023-07-28T17:57:32;98474.75;;;31.77;47.08
5703;BME280;2876;51.738;10.050;2023-07-28T18:07:03;98489.41;;;32.68;44.77
5703;BME280;2876;51.738;10.050;2023-07-28T18:13:06;98476.59;;;31.54;45.34
5703;BME280;2876;51.738;10.050;2023-07-28T18:19:08;98486.22;;;29.27;51.84
5703;BME280;2876;51.738;10.050;2023-07-28T18:25:10;98480.03;;;27.89;60.03
5703;BME280;2876;51.738;10.050;2023-07-28T18:31:13;98483.09;;;27.28;62.22
5703;BME280;2876;51.738;10.050;2023-07-28T18:37:15;98488.13;;;26.36;64.35
5703;BME280;2876;51.738;10.050;2023-07-28T18:43:18;98498.25;;;25.83;66.43
5703;BME280;2876;51.738;10.050;2023-07-28T18:49:20;98503.94;;;25.38;71.84
5703;BME280;2876;51.738;10.050;2023-07-28T18:55:22;98502.19;;;24.89;72.89
5703;BME280;2876;51.738;10.050;2023-07-28T19:01:24;98506.75;;;24.62;72.96
5703;BME280;2876;51.738;10.050;2023-07-28T19:07:26;98510.03;;;24.50;69.72
5703;BME280;2876;51.738;10.050;2023-07-28T19:13:29;98517.31;;;24.19;71.31
5703;BME280;2876;51.738;10.050;2023-07-28T19:19:33;98520.88;;;23.69;75.63
5703;BME280;2876;51.738;10.050;2023-07-28T19:25:35;98524.81;;;23.63;77.28
5703;BME280;2876;51.738;10.050;2023-07-28T19:31:37;98521.16;;;23.40;79.46
5703;BME280;2876;51.738;10.050;2023-07-28T19:37:40;98528.59;;;23.07;81.23
5703;BME280;2876;51.738;10.050;2023-07-28T19:43:46;98530.63;;;23.01;82.55
5703;BME280;2876;51.738;10.050;2023-07-28T19:49:48;98539.09;;;22.86;83.92
5703;BME280;2876;51.738;10.050;2023-07-28T19:56:10;98535.97;;;22.93;84.34
5703;BME280;2876;51.738;10.050;2023-07-28T20:02:12;98548.50;;;22.61;85.82
5703;BME280;2876;51.738;10.050;2023-07-28T20:08:14;98550.06;;;22.29;87.55
5703;BME280;2876;51.738;10.050;2023-07-28T20:14:16;98543.66;;;22.39;88.36
5703;BME280;2876;51.738;10.050;2023-07-28T20:20:18;98553.78;;;22.20;89.72
5703;BME280;2876;51.738;10.050;2023-07-28T20:26:20;98559.34;;;22.10;90.98
5703;BME280;2876;51.738;10.050;2023-07-28T20:32:22;98555.38;;;22.21;90.73
5703;BME280;2876;51.738;10.050;2023-07-28T20:38:28;98563.31;;;22.22;91.41
5703;BME280;2876;51.738;10.050;2023-07-28T20:44:30;98559.75;;;22.22;92.19
5703;BME280;2876;51.738;10.050;2023-07-28T20:50:33;98559.34;;;21.91;93.92
5703;BME280;2876;51.738;10.050;2023-07-28T20:56:35;98569.59;;;21.99;94.57
5703;BME280;2876;51.738;10.050;2023-07-28T21:02:37;98565.66;;;21.86;94.39
5703;BME280;2876;51.738;10.050;2023-07-28T21:08:40;98571.28;;;21.95;94.09
5703;BME280;2876;51.738;10.050;2023-07-28T21:14:42;98579.66;;;21.79;94.60
5703;BME280;2876;51.738;10.050;2023-07-28T21:20:45;98573.75;;;21.72;93.71
5703;BME280;2876;51.738;10.050;2023-07-28T21:26:47;98582.84;;;21.39;96.15
5703;BME280;2876;51.738;10.050;2023-07-28T21:32:49;98599.47;;;21.66;95.93
5703;BME280;2876;51.738;10.050;2023-07-28T21:38:51;98600.34;;;21.62;96.70
5703;BME280;2876;51.738;10.050;2023-07-28T21:44:53;98598.47;;;21.33;98.36
5703;BME280;2876;51.738;10.050;2023-07-28T21:50:55;98595.16;;;21.36;98.61
5703;BME280;2876;51.738;10.050;2023-07-28T21:56:57;98601.72;;;21.30;99.13
5703;BME280;2876;51.738;10.050;2023-07-28T22:02:59;98586.75;;;21.27;100.00
5703;BME280;2876;51.738;10.050;2023-07-28T22:09:02;98593.53;;;21.01;100.00
5703;BME280;2876;51.738;10.050;2023-07-28T22:15:04;98575.06;;;20.93;100.00
5703;BME280;2876;51.738;10.050;2023-07-28T22:21:07;98569.66;;;20.88;100.00
5703;BME280;2876;51.738;10.050;2023-07-28T22:27:09;98576.88;;;21.02;100.00
5703;BME280;2876;51.738;10.050;2023-07-28T22:33:11;98571.88;;;20.86;100.00
5703;BME280;2876;51.738;10.050;2023-07-28T22:39:13;98569.28;;;20.65;100.00
5703;BME280;2876;51.738;10.050;2023-07-28T22:45:16;98569.34;;;20.60;100.00
5703;BME280;2876;51.738;10.050;2023-07-28T22:51:18;98571.91;;;20.41;100.00
5703;BME280;2876;51.738;10.050;2023-07-28T22:57:20;98582.19;;;20.05;100.00
5703;BME280;2876;51.738;10.050;2023-07-28T23:03:23;98587.28;;;20.22;100.00
5703;BME280;2876;51.738;10.050;2023-07-28T23:09:25;98586.66;;;19.81;100.00
5703;BME280;2876;51.738;10.050;2023-07-28T23:15:27;98595.63;;;19.86;100.00
5703;BME280;2876;51.738;10.050;2023-07-28T23:21:29;98593.59;;;20.07;100.00
5703;BME280;2876;51.738;10.050;2023-07-28T23:27:31;98603.31;;;20.23;100.00
5703;BME280;2876;51.738;10.050;2023-07-28T23:33:32;98589.44;;;20.20;100.00
5703;BME280;2876;51.738;10.050;2023-07-28T23:39:34;98582.84;;;20.36;100.00
5703;BME280;2876;51.738;10.050;2023-07-28T23:45:36;98585.41;;;20.17;100.00
5703;BME280;2876;51.738;10.050;2023-07-28T23:51:38;98583.75;;;20.16;100.00
5703;BME280;2876;51.738;10.050;2023-07-28T23:57:40;98578.78;;;20.28;100.00
